Lake Oke South End current weather conditions

sailwx.info

Wind from 151 at 4 knots gusting 5

Air temperature 17.5° C
Dewpoint 7.1° C
Water temperature -7999.0° C

Last reported at 2020-Jan-26 19:45 UTC.
Time now 2020-Jan-26 20:37 UTC

Location: N 26°49' W 080°47'.
View on Google Maps.

See reports from other nearby stations

  
Tides and Currents Weather Stations Pressure Air Temp Water Temp Dewpoint Dewpoint Depression Visibility Wind Speed Wind Dir Waves Ship Positions
date/time (UTC)wind fromknots sea level pressurealtimeterstation pressurevisibilityair tempwater tempwave heightnotes
2020-Jan-26 19:45 151 4 gusting 5 17.5-7999.0
2020-Jan-26 19:30 028 5 gusting 6 17.2-7999.0
2020-Jan-26 19:15 022 6 gusting 6 16.9-7999.0
2020-Jan-26 18:45 338 7 gusting 9 16.2-7999.0
2020-Jan-26 18:30 337 7 gusting 8 16.0-7999.0
2020-Jan-26 18:15 344 6 gusting 8 15.6-7999.0
2020-Jan-26 17:45 296 7 gusting 9 15.1-7999.0
2020-Jan-26 17:30 342 7 gusting 9 14.9-7999.0
2020-Jan-26 17:15 342 8 gusting 10 14.6-7999.0
2020-Jan-26 16:45 335 10 gusting 11 14.3-7999.0
2020-Jan-26 16:30 336 10 gusting 12 14.2-7999.0
2020-Jan-26 16:15 339 11 gusting 12 14.0-7999.0
2020-Jan-26 15:45 343 12 gusting 13 13.6-7999.0
2020-Jan-26 15:30 318 10 gusting 12 13.4-7999.0
2020-Jan-26 15:15 296 11 gusting 14 13.2-7999.0
2020-Jan-26 14:45 334 12 gusting 14 13.1-7999.0
2020-Jan-26 14:30 307 11 gusting 13 12.9-7999.0
2020-Jan-26 14:15 301 12 gusting 14 12.8-7999.0
2020-Jan-26 13:45 085 12 gusting 15 12.7-7999.0
2020-Jan-26 13:30 097 13 gusting 15 12.6-7999.0
2020-Jan-26 13:15 190 14 gusting 17 12.6-7999.0
2020-Jan-26 12:45 114 13 gusting 15 12.5-7999.0
2020-Jan-26 12:30 160 12 gusting 15 12.3-7999.0
2020-Jan-26 12:15 137 13 gusting 16 12.1-7999.0
2020-Jan-26 11:45 323 14 gusting 16 11.9-7999.0
2020-Jan-26 11:30 338 15 gusting 18 11.9-7999.0
2020-Jan-26 11:15 343 16 gusting 18 12.0-7999.0
2020-Jan-26 10:45 340 15 gusting 17 12.1-7999.0
2020-Jan-26 10:30 339 17 gusting 20 12.1-7999.0
2020-Jan-26 10:15 335 17 gusting 20 12.1-7999.0
2020-Jan-26 09:45 338 17 gusting 19 12.3-7999.0
2020-Jan-26 09:30 338 17 gusting 19 12.4-7999.0
2020-Jan-26 09:15 337 17 gusting 19 12.5-7999.0
2020-Jan-26 08:45 335 16 gusting 19 12.6-7999.0
2020-Jan-26 08:30 332 18 gusting 20 12.6-7999.0
2020-Jan-26 08:15 331 18 gusting 20 12.8-7999.0
2020-Jan-26 07:45 324 19 gusting 21 13.0-7999.0
2020-Jan-26 07:30 325 19 gusting 21 13.0-7999.0
2020-Jan-26 07:15 323 19 gusting 21 13.3-7999.0
2020-Jan-26 06:45 323 17 gusting 19 13.9-7999.0
2020-Jan-26 06:30 327 18 gusting 19 14.3-7999.0
2020-Jan-26 06:15 324 15 gusting 18 14.6-7999.0
2020-Jan-26 05:45 322 14 gusting 16 14.8-7999.0
2020-Jan-26 05:30 326 14 gusting 17 15.2-7999.0
2020-Jan-26 05:15 322 15 gusting 17 15.3-7999.0
2020-Jan-26 04:45 326 14 gusting 16 15.7-7999.0
2020-Jan-26 04:30 326 12 gusting 13 15.9-7999.0
2020-Jan-26 04:15 321 11 gusting 12 16.2-7999.0
2020-Jan-26 03:45 314 11 gusting 12 16.7-7999.0
2020-Jan-26 03:30 309 10 gusting 12 17.1-7999.0
2020-Jan-26 03:15 303 6 gusting 8 17.4-7999.0
2020-Jan-26 02:45 044 2 gusting 4 17.5-7999.0
2020-Jan-26 02:30 028 4 gusting 6 17.7-7999.0
2020-Jan-26 02:15 028 6 gusting 7 17.7-7999.0
2020-Jan-26 01:45 013 5 gusting 5 18.1-7999.0
2020-Jan-26 01:30 013 5 gusting 5 18.1-7999.0
2020-Jan-26 01:15 015 5 gusting 5 18.3-7999.0
2020-Jan-26 00:45 066 6 gusting 6 18.4-7999.0
2020-Jan-26 00:30 038 6 gusting 7 18.9-7999.0
2020-Jan-26 00:15 346 7 gusting 8 19.3-7999.0
2020-Jan-25 23:45 345 4 gusting 5 19.5-7999.0
2020-Jan-25 23:30 342 4 gusting 4 19.7-7999.0
2020-Jan-25 23:15 187 4 gusting 4 19.4-7999.0
2020-Jan-25 22:45 010 4 gusting 5 19.9-7999.0
2020-Jan-25 22:30 013 5 gusting 6 20.2-7999.0
2020-Jan-25 22:15 011 5 gusting 7 20.1-7999.0
2020-Jan-25 21:45 005 5 gusting 6 19.9-7999.0
2020-Jan-25 21:30 007 5 gusting 6 19.9-7999.0
2020-Jan-25 21:15 010 6 gusting 7 19.8-7999.0
2020-Jan-25 20:45 023 5 gusting 6 19.5-7999.0
2020-Jan-25 20:30 026 4 gusting 5 19.2-7999.0
2020-Jan-25 20:15 027 4 gusting 4 18.8-7999.0
2020-Jan-25 19:45 038 4 gusting 5 18.2-7999.0
2020-Jan-25 19:30 035 3 gusting 5 18.4-7999.0
2020-Jan-25 19:15 024 2 gusting 3 18.6-7999.0
2020-Jan-25 18:45 169 2 gusting 3 18.3-7999.0
2020-Jan-25 18:30 338 2 gusting 3 18.1-7999.0
2020-Jan-25 18:15 333 3 gusting 4 18.1-7999.0
2020-Jan-25 17:45 321 5 gusting 6 17.9-7999.0
2020-Jan-25 17:30 327 6 gusting 8 17.7-7999.0
2020-Jan-25 17:15 326 6 gusting 7 17.5-7999.0
2020-Jan-25 16:45 342 6 gusting 7 17.4-7999.0
2020-Jan-25 16:30 344 6 gusting 7 17.3-7999.0
2020-Jan-25 16:15 341 7 gusting 8 17.2-7999.0
2020-Jan-25 15:45 334 8 gusting 9 17.0-7999.0
2020-Jan-25 15:30 341 7 gusting 9 17.0-7999.0
2020-Jan-25 15:15 332 9 gusting 10 16.8-7999.0
2020-Jan-25 14:45 328 9 gusting 9 16.6-7999.0
2020-Jan-25 14:30 330 8 gusting 10 16.6-7999.0
2020-Jan-25 14:15 339 8 gusting 9 16.7-7999.0
2020-Jan-25 13:45 328 9 gusting 11 16.7-7999.0
2020-Jan-25 13:30 324 11 gusting 13 16.7-7999.0
2020-Jan-25 13:15 321 8 gusting 10 16.6-7999.0
2020-Jan-25 12:45 310 8 gusting 9 16.6-7999.0
2020-Jan-25 12:30 292 7 gusting 8 16.7-7999.0
2020-Jan-25 12:15 296 7 gusting 9 16.7-7999.0
2020-Jan-25 11:45 176 1 gusting 3 16.5-7999.0
2020-Jan-25 11:30 078 2 gusting 3 16.4-7999.0
2020-Jan-25 11:15 090 1 gusting 3 16.5-7999.0
2020-Jan-25 10:45 058 2 gusting 3 16.5-7999.0
2020-Jan-25 10:30 103 1 gusting 2 16.5-7999.0
2020-Jan-25 10:15 101 0 gusting 1 16.5-7999.0
2020-Jan-25 09:45 092 1 gusting 1 16.7-7999.0
2020-Jan-25 09:30 079 2 gusting 2 16.7-7999.0
2020-Jan-25 09:15 081 2 gusting 2 16.6-7999.0
2020-Jan-25 09:00 100 1 gusting 2 16.6-7999.0
2020-Jan-25 08:45 106 1 gusting 2 16.7-7999.0
2020-Jan-25 08:30 103 1 gusting 2 16.8-7999.0
2020-Jan-25 08:15 086 1 gusting 2 17.0-7999.0
2020-Jan-25 07:45 084 1 gusting 3 17.2-7999.0
2020-Jan-25 07:30 079 2 gusting 2 17.3-7999.0
2020-Jan-25 07:15 096 1 gusting 3 17.4-7999.0
2020-Jan-25 06:45 114 1 gusting 2 17.7-7999.0
2020-Jan-25 06:30 130 2 gusting 4 17.7-7999.0
2020-Jan-25 06:15 147 4 gusting 5 17.9-7999.0
2020-Jan-25 06:00 153 5 gusting 6 17.8-7999.0
2020-Jan-25 05:45 146 6 gusting 7 17.8-7999.0
2020-Jan-25 05:30 151 5 gusting 6 17.9-7999.0
2020-Jan-25 05:15 151 5 gusting 6 17.9-7999.0
2020-Jan-25 05:00 155 4 gusting 6 17.8-7999.0
2020-Jan-25 04:45 153 5 gusting 5 17.8-7999.0
2020-Jan-25 04:30 131 2 gusting 4 17.9-7999.0
2020-Jan-25 04:15 123 1 gusting 4 17.8-7999.0
2020-Jan-25 04:00 133 3 gusting 6 17.9-7999.0
2020-Jan-25 03:45 139 4 gusting 5 18.0-7999.0
2020-Jan-25 03:30 150 6 gusting 8 18.1-7999.0
2020-Jan-25 03:15 152 7 gusting 8 18.2-7999.0
2020-Jan-25 03:00 164 5 gusting 7 18.4-7999.0
2020-Jan-25 02:45 156 5 gusting 7 18.4-7999.0
2020-Jan-25 02:30 138 6 gusting 7 18.9-7999.0
2020-Jan-25 02:15 134 6 gusting 7 19.0-7999.0
2020-Jan-25 02:00 130 8 gusting 10 19.0-7999.0
2020-Jan-25 01:45 096 5 gusting 6 18.4-7999.0
2020-Jan-25 01:30 086 5 gusting 6 18.5-7999.0
2020-Jan-25 01:15 088 5 gusting 5 18.8-7999.0
2020-Jan-25 01:00 079 5 gusting 6 18.8-7999.0
2020-Jan-25 00:45 082 6 gusting 6 19.1-7999.0
2020-Jan-25 00:30 085 5 gusting 6 19.4-7999.0
2020-Jan-25 00:15 084 5 gusting 5 19.4-7999.0
2020-Jan-24 23:45 080 6 gusting 6 19.5-7999.0
2020-Jan-24 23:30 076 6 gusting 7 19.6-7999.0
2020-Jan-24 23:15 062 6 gusting 7 19.7-7999.0
2020-Jan-24 22:45 048 6 gusting 7 19.8-7999.0
2020-Jan-24 22:30 039 7 gusting 8 19.8-7999.0
2020-Jan-24 22:15 037 6 gusting 8 19.9-7999.0
2020-Jan-24 21:45 040 6 gusting 7 19.9-7999.0
2020-Jan-24 21:30 041 5 gusting 6 19.9-7999.0
2020-Jan-24 21:15 037 5 gusting 6 19.8-7999.0
2020-Jan-24 20:45 015 7 gusting 7 20.0-7999.0
2020-Jan-24 20:30 015 7 gusting 7 19.8-7999.0
2020-Jan-24 20:15 027 7 gusting 8 19.5-7999.0